createdAt,value
2018-05-02T00:00:49.376Z,91.60
2018-05-02T00:03:16.916Z,91.60
2018-05-02T00:05:44.484Z,91.20
2018-05-02T00:08:12.033Z,91.50
2018-05-02T00:10:40.119Z,91.60
2018-05-02T00:13:07.668Z,91.40
2018-05-02T00:15:35.813Z,91.60
2018-05-02T00:18:04.164Z,91.20
2018-05-02T00:20:32.588Z,91.20
2018-05-02T00:23:00.139Z,91.30
2018-05-02T00:25:27.706Z,91.30
2018-05-02T00:27:56.825Z,91.30
2018-05-02T00:30:26.274Z,91.30
2018-05-02T00:32:53.824Z,91.50
2018-05-02T00:35:21.365Z,91.80
2018-05-02T00:37:49.784Z,91.90
2018-05-02T00:40:18.095Z,91.80
2018-05-02T00:42:45.701Z,91.70
2018-05-02T00:45:13.248Z,92.00
2018-05-02T00:47:40.800Z,92.20
2018-05-02T00:50:08.352Z,92.60
2018-05-02T00:52:37.456Z,92.10
2018-05-02T00:55:05.032Z,92.60
2018-05-02T00:57:32.580Z,92.70
2018-05-02T01:00:00.760Z,92.60
2018-05-02T01:02:29.109Z,92.80
2018-05-02T01:04:57.445Z,92.80
2018-05-02T01:07:25.025Z,92.70
2018-05-02T01:09:52.576Z,93.00
2018-05-02T01:12:21.094Z,93.30
2018-05-02T01:14:48.657Z,93.20
2018-05-02T01:17:16.200Z,93.20
2018-05-02T01:19:46.836Z,93.30
2018-05-02T01:22:15.296Z,93.40
2018-05-02T01:24:42.840Z,93.30
2018-05-02T01:27:10.964Z,93.40
2018-05-02T01:29:38.510Z,93.50
2018-05-02T01:32:06.079Z,93.60
2018-05-02T01:34:33.636Z,93.50
2018-05-02T01:37:01.185Z,93.70
2018-05-02T01:39:28.737Z,93.70
2018-05-02T01:41:58.153Z,94.00
2018-05-02T01:44:25.733Z,94.00
2018-05-02T01:46:53.280Z,94.20
2018-05-02T01:49:24.507Z,94.10
2018-05-02T01:51:52.056Z,94.10
2018-05-02T01:54:19.600Z,94.20
2018-05-02T01:56:47.172Z,94.30
2018-05-02T01:59:14.720Z,94.50
2018-05-02T02:01:42.272Z,94.50
2018-05-02T02:04:09.822Z,94.60
2018-05-02T02:06:37.388Z,94.80
2018-05-02T02:09:05.753Z,94.80
2018-05-02T02:11:33.305Z,95.00
2018-05-02T02:14:00.856Z,95.10
2018-05-02T02:16:28.424Z,95.20
2018-05-02T02:18:55.973Z,95.40
2018-05-02T02:21:23.521Z,95.40
2018-05-02T02:23:51.104Z,95.50
2018-05-02T02:26:18.656Z,95.60
2018-05-02T02:28:46.201Z,95.70
2018-05-02T02:31:13.744Z,95.80
2018-05-02T02:33:41.292Z,95.60
2018-05-02T02:36:08.844Z,95.70
2018-05-02T02:38:36.392Z,95.60
2018-05-02T02:41:03.941Z,95.50
2018-05-02T02:43:31.494Z,95.60
2018-05-02T02:45:59.041Z,95.50
2018-05-02T02:48:26.596Z,95.60
2018-05-02T02:50:54.160Z,95.60
2018-05-02T02:53:22.947Z,95.40
2018-05-02T02:55:50.496Z,96.00
2018-05-02T02:58:18.040Z,95.50
2018-05-02T03:00:45.592Z,95.60
2018-05-02T03:03:13.164Z,95.70
2018-05-02T03:05:40.715Z,95.80
2018-05-02T03:08:08.266Z,95.70
2018-05-02T03:10:35.817Z,95.90
2018-05-02T03:13:04.412Z,96.10
2018-05-02T03:15:31.995Z,96.00
2018-05-02T03:18:00.664Z,96.00
2018-05-02T03:20:28.240Z,96.10
2018-05-02T03:22:55.783Z,96.10
2018-05-02T03:25:23.329Z,96.30
2018-05-02T03:27:51.844Z,96.20
2018-05-02T03:30:19.395Z,96.30
2018-05-02T03:32:46.961Z,96.40
2018-05-02T03:35:15.267Z,96.30
2018-05-02T03:37:42.820Z,96.30
2018-05-02T03:40:10.399Z,96.40
2018-05-02T03:42:37.943Z,96.40
2018-05-02T03:45:05.488Z,96.60
2018-05-02T03:47:33.692Z,96.50
2018-05-02T03:50:01.250Z,96.50
2018-05-02T03:52:28.832Z,96.50
2018-05-02T03:54:56.392Z,96.60
2018-05-02T03:57:23.950Z,96.60
2018-05-02T04:00:03.232Z,96.60
2018-05-02T04:02:42.484Z,96.70
2018-05-02T04:05:21.724Z,96.50
2018-05-02T04:07:49.273Z,96.50
2018-05-02T04:10:16.848Z,96.50
2018-05-02T04:12:44.392Z,96.60
2018-05-02T04:15:11.936Z,96.60
2018-05-02T04:17:39.484Z,96.60
2018-05-02T04:20:07.036Z,96.50
2018-05-02T04:22:34.604Z,96.50
2018-05-02T04:25:02.174Z,96.50
2018-05-02T04:27:29.720Z,96.30
2018-05-02T04:29:57.276Z,96.30
2018-05-02T04:32:24.831Z,96.30
2018-05-02T04:34:54.987Z,96.30
2018-05-02T04:37:22.570Z,96.30
2018-05-02T04:39:50.900Z,96.10
2018-05-02T04:42:21.140Z,96.10
2018-05-02T04:44:48.689Z,96.10
2018-05-02T04:47:16.240Z,95.80
2018-05-02T04:49:43.812Z,95.70
2018-05-02T04:52:11.353Z,95.40
2018-05-02T04:54:38.914Z,95.20
2018-05-02T04:57:06.460Z,95.30
2018-05-02T04:59:34.042Z,95.30
2018-05-02T05:02:01.620Z,95.50
2018-05-02T05:04:29.905Z,95.30
2018-05-02T05:06:57.452Z,95.30
2018-05-02T05:09:24.995Z,95.10
2018-05-02T05:11:52.544Z,95.00
2018-05-02T05:14:21.076Z,94.70
2018-05-02T05:16:48.632Z,94.30
2018-05-02T05:19:16.946Z,94.40
2018-05-02T05:21:45.085Z,94.30
2018-05-02T05:24:12.652Z,94.70
2018-05-02T05:26:42.292Z,93.60
2018-05-02T05:29:09.848Z,93.60
2018-05-02T05:31:37.397Z,93.50
2018-05-02T05:34:04.945Z,94.10
2018-05-02T05:36:33.364Z,94.00
2018-05-02T05:39:00.936Z,93.70
2018-05-02T05:41:28.488Z,93.70
2018-05-02T05:43:56.061Z,93.70
2018-05-02T05:46:25.319Z,93.40
2018-05-02T05:48:53.344Z,93.10
2018-05-02T05:51:21.702Z,92.70
2018-05-02T05:53:49.249Z,92.70
2018-05-02T05:56:16.811Z,92.70
2018-05-02T05:58:44.366Z,93.10
2018-05-02T06:01:12.437Z,93.00
2018-05-02T06:03:40.744Z,93.10
2018-05-02T06:06:09.056Z,93.10
2018-05-02T06:08:36.609Z,93.10
2018-05-02T06:11:04.153Z,93.10
2018-05-02T06:13:33.168Z,93.20
2018-05-02T06:16:00.733Z,94.00
2018-05-02T06:18:28.280Z,93.10
2018-05-02T06:20:55.828Z,93.00
2018-05-02T06:23:23.377Z,93.00
2018-05-02T06:25:50.924Z,92.60
2018-05-02T06:28:19.262Z,93.40
2018-05-02T06:30:46.836Z,93.30
2018-05-02T06:33:14.383Z,92.90
2018-05-02T06:35:41.933Z,93.10
2018-05-02T06:38:09.480Z,92.70
2018-05-02T06:40:37.048Z,93.00
2018-05-02T06:43:04.596Z,92.80
2018-05-02T06:45:32.145Z,92.80
2018-05-02T06:47:59.694Z,92.90
2018-05-02T06:50:27.241Z,92.70
2018-05-02T06:52:54.816Z,92.50
2018-05-02T06:55:22.362Z,92.40
2018-05-02T06:57:49.915Z,92.10
2018-05-02T07:00:17.469Z,92.10
2018-05-02T07:02:45.019Z,91.90
2018-05-02T07:05:12.585Z,91.50
2018-05-02T07:07:40.332Z,91.90
2018-05-02T07:10:07.882Z,91.40
2018-05-02T07:12:35.429Z,91.70
2018-05-02T07:15:03.745Z,91.50
2018-05-02T07:17:31.858Z,91.50
2018-05-02T07:20:01.080Z,91.50
2018-05-02T07:22:30.028Z,90.60
2018-05-02T07:24:57.579Z,90.60
2018-05-02T07:27:25.120Z,90.80
2018-05-02T07:29:54.592Z,90.50
2018-05-02T07:32:23.039Z,89.80
2018-05-02T07:34:50.579Z,88.40
2018-05-02T07:37:18.124Z,89.60
2018-05-02T07:39:45.672Z,88.50
2018-05-02T07:42:13.258Z,88.20
2018-05-02T07:44:40.816Z,87.70
2018-05-02T07:47:09.165Z,84.70
2018-05-02T07:49:36.719Z,84.70
2018-05-02T07:52:04.264Z,85.10
2018-05-02T07:54:31.848Z,85.40
2018-05-02T07:56:59.416Z,85.40
2018-05-02T07:59:26.968Z,85.90
2018-05-02T08:01:54.512Z,86.30
2018-05-02T08:04:22.066Z,85.20
2018-05-02T08:06:49.644Z,86.10
2018-05-02T08:09:17.193Z,85.40
2018-05-02T08:11:44.740Z,84.70
2018-05-02T08:14:12.284Z,83.30
2018-05-02T08:16:39.835Z,82.80
2018-05-02T08:19:07.409Z,84.30
2018-05-02T08:21:34.965Z,83.10
2018-05-02T08:24:02.512Z,84.10
2018-05-02T08:26:30.061Z,81.90
2018-05-02T08:28:57.608Z,82.40
2018-05-02T08:31:25.176Z,82.90
2018-05-02T08:33:52.728Z,84.50
2018-05-02T08:36:21.047Z,84.40
2018-05-02T08:38:48.645Z,84.30
2018-05-02T08:41:16.357Z,80.10
2018-05-02T08:43:43.909Z,77.10
2018-05-02T08:46:11.491Z,79.30
2018-05-02T08:48:39.040Z,79.40
2018-05-02T08:51:06.593Z,78.50
2018-05-02T08:53:34.140Z,79.60
2018-05-02T08:56:01.688Z,81.90
2018-05-02T08:58:29.242Z,81.70
2018-05-02T09:00:56.792Z,83.10
2018-05-02T09:03:24.402Z,83.40
2018-05-02T09:05:51.926Z,82.50
2018-05-02T09:08:19.483Z,80.20
2018-05-02T09:10:47.027Z,80.10
2018-05-02T09:13:14.576Z,80.40
2018-05-02T09:15:42.144Z,79.80
2018-05-02T09:18:09.708Z,80.10
2018-05-02T09:20:37.256Z,80.20
2018-05-02T09:23:04.805Z,77.60
2018-05-02T09:25:32.368Z,76.70
2018-05-02T09:27:59.935Z,77.90
2018-05-02T09:30:27.489Z,77.40
2018-05-02T09:32:55.045Z,76.60
2018-05-02T09:35:22.603Z,76.40
2018-05-02T09:37:50.161Z,77.00
2018-05-02T09:40:17.740Z,76.80
2018-05-02T09:42:46.148Z,78.20
2018-05-02T09:45:14.373Z,78.30
2018-05-02T09:47:41.928Z,78.30
2018-05-02T09:50:09.476Z,78.10
2018-05-02T09:52:37.817Z,77.80
2018-05-02T09:55:05.364Z,78.00
2018-05-02T09:57:33.672Z,76.70
2018-05-02T10:00:01.223Z,76.80
2018-05-02T10:02:28.776Z,76.90
2018-05-02T10:04:56.349Z,75.30
2018-05-02T10:07:23.901Z,75.60
2018-05-02T10:09:51.464Z,75.10
2018-05-02T10:12:20.057Z,73.50
2018-05-02T10:14:47.636Z,73.50
2018-05-02T10:17:15.230Z,73.10
2018-05-02T10:19:42.785Z,72.20
2018-05-02T10:22:10.348Z,71.20
2018-05-02T10:24:37.908Z,67.90
2018-05-02T10:27:05.456Z,66.90
2018-05-02T10:29:33.476Z,66.50
2018-05-02T10:32:01.035Z,68.90
2018-05-02T10:34:28.598Z,70.80
2018-05-02T10:36:56.167Z,68.30
2018-05-02T10:39:23.726Z,68.10
2018-05-02T10:41:51.300Z,68.10
2018-05-02T10:44:18.854Z,68.00
2018-05-02T10:46:46.608Z,69.00
2018-05-02T10:49:14.160Z,69.70
2018-05-02T10:51:41.713Z,69.80
2018-05-02T10:54:09.299Z,68.60
2018-05-02T10:56:36.855Z,67.30
2018-05-02T10:59:04.481Z,67.90
2018-05-02T11:01:32.008Z,66.30
2018-05-02T11:04:01.339Z,64.40
2018-05-02T11:06:28.921Z,66.30
2018-05-02T11:08:56.478Z,65.40
2018-05-02T11:11:24.026Z,65.30
2018-05-02T11:13:51.576Z,65.40
2018-05-02T11:16:19.128Z,67.80
2018-05-02T11:18:46.704Z,66.00
2018-05-02T11:21:14.253Z,65.40
2018-05-02T11:23:41.812Z,63.30
2018-05-02T11:26:09.361Z,65.60
2018-05-02T11:28:36.916Z,65.00
2018-05-02T11:31:05.200Z,64.60
2018-05-02T11:33:32.757Z,65.80
2018-05-02T11:36:00.317Z,65.10
2018-05-02T11:38:27.871Z,64.70
2018-05-02T11:40:55.423Z,64.00
2018-05-02T11:43:23.001Z,65.20
2018-05-02T11:45:50.551Z,66.00
2018-05-02T11:48:18.104Z,66.30
2018-05-02T11:50:45.656Z,66.40
2018-05-02T11:53:13.209Z,66.00
2018-05-02T11:55:41.555Z,68.10
2018-05-02T11:58:09.103Z,68.10
2018-05-02T12:00:36.792Z,68.10
2018-05-02T12:03:05.124Z,68.80
2018-05-02T12:05:32.672Z,68.70
2018-05-02T12:08:00.241Z,68.20
2018-05-02T12:10:27.828Z,67.80
2018-05-02T12:12:55.380Z,67.30
2018-05-02T12:15:22.932Z,68.20
2018-05-02T12:17:50.484Z,68.50
2018-05-02T12:20:18.060Z,68.00
2018-05-02T12:22:45.608Z,67.50
2018-05-02T12:25:13.160Z,68.30
2018-05-02T12:27:41.539Z,67.70
2018-05-02T12:30:09.069Z,67.70
2018-05-02T12:32:36.662Z,67.90
2018-05-02T12:35:05.048Z,68.30
2018-05-02T12:37:32.597Z,68.80
2018-05-02T12:40:00.149Z,68.90
2018-05-02T12:42:27.715Z,67.90
2018-05-02T12:44:55.297Z,67.90
2018-05-02T12:47:22.867Z,68.50
2018-05-02T12:49:50.424Z,68.40
2018-05-02T12:52:17.984Z,66.20
2018-05-02T12:54:46.296Z,66.60
2018-05-02T12:57:13.868Z,66.50
2018-05-02T12:59:41.424Z,64.90
2018-05-02T13:02:08.976Z,63.40
2018-05-02T13:04:36.535Z,64.30
2018-05-02T13:07:04.091Z,63.90
2018-05-02T13:09:31.660Z,63.90
2018-05-02T13:11:59.224Z,64.70
2018-05-02T13:14:26.776Z,66.40
2018-05-02T13:16:54.332Z,67.00
2018-05-02T13:19:21.882Z,67.90
2018-05-02T13:21:49.452Z,68.20
2018-05-02T13:24:17.002Z,69.70
2018-05-02T13:26:44.552Z,69.10
2018-05-02T13:29:12.104Z,70.10
2018-05-02T13:31:39.660Z,69.50
2018-05-02T13:34:07.246Z,70.70
2018-05-02T13:36:34.802Z,70.90
2018-05-02T13:39:02.356Z,70.10
2018-05-02T13:41:29.908Z,70.60
2018-05-02T13:43:57.473Z,70.30
2018-05-02T13:46:25.056Z,71.10
2018-05-02T13:48:53.381Z,72.10
2018-05-02T13:51:20.952Z,72.00
2018-05-02T13:53:49.274Z,72.30
2018-05-02T13:56:16.831Z,72.30
2018-05-02T13:58:44.380Z,72.30
2018-05-02T14:01:12.700Z,72.40
2018-05-02T14:03:40.284Z,72.30
2018-05-02T14:06:07.840Z,72.70
2018-05-02T14:08:35.446Z,72.90
2018-05-02T14:11:02.969Z,73.20
2018-05-02T14:13:30.520Z,73.30
2018-05-02T14:15:58.120Z,73.30
2018-05-02T14:18:25.676Z,73.50
2018-05-02T14:20:53.228Z,73.30
2018-05-02T14:23:20.784Z,72.80
2018-05-02T14:25:49.105Z,74.20
2018-05-02T14:28:16.691Z,74.10
2018-05-02T14:30:44.291Z,72.90
2018-05-02T14:33:11.840Z,73.60
2018-05-02T14:35:40.156Z,73.10
2018-05-02T14:38:07.718Z,73.00
2018-05-02T14:40:35.304Z,72.50
2018-05-02T14:43:02.864Z,73.10
2018-05-02T14:45:30.420Z,73.70
2018-05-02T14:47:57.972Z,73.20
2018-05-02T14:50:25.548Z,73.40
2018-05-02T14:52:53.126Z,73.50
2018-05-02T14:55:20.676Z,73.60
2018-05-02T14:57:48.260Z,74.10
2018-05-02T15:00:15.819Z,73.80
2018-05-02T15:02:43.374Z,73.70
2018-05-02T15:05:10.951Z,73.90
2018-05-02T15:07:38.503Z,73.10
2018-05-02T15:10:06.057Z,73.60
2018-05-02T15:12:34.438Z,73.90
2018-05-02T15:15:02.848Z,74.30
2018-05-02T15:17:31.389Z,74.30
2018-05-02T15:19:58.944Z,73.80
2018-05-02T15:22:26.504Z,74.40
2018-05-02T15:24:54.062Z,74.30
2018-05-02T15:27:21.630Z,75.10
2018-05-02T15:29:49.218Z,75.10
2018-05-02T15:32:16.772Z,75.70
2018-05-02T15:34:44.323Z,76.10
2018-05-02T15:37:11.890Z,76.20
2018-05-02T15:39:39.488Z,76.30
2018-05-02T15:42:07.064Z,75.90
2018-05-02T15:44:34.612Z,75.90
2018-05-02T15:47:02.184Z,76.30
2018-05-02T15:49:29.732Z,76.70
2018-05-02T15:51:57.284Z,76.90
2018-05-02T15:54:24.879Z,76.60
2018-05-02T15:56:52.428Z,76.40
2018-05-02T15:59:20.040Z,77.50
2018-05-02T16:01:47.604Z,77.00
2018-05-02T16:04:15.918Z,76.90
2018-05-02T16:06:43.492Z,76.80
2018-05-02T16:09:11.046Z,77.10
2018-05-02T16:11:38.596Z,77.50
2018-05-02T16:14:06.171Z,77.50
2018-05-02T16:16:33.731Z,77.80
2018-05-02T16:19:02.076Z,77.00
2018-05-02T16:21:29.632Z,76.90
2018-05-02T16:23:57.231Z,77.50
2018-05-02T16:26:24.806Z,77.40
2018-05-02T16:28:52.360Z,77.50
2018-05-02T16:31:19.908Z,77.60
2018-05-02T16:33:47.484Z,77.10
2018-05-02T16:36:15.041Z,77.30
2018-05-02T16:38:42.594Z,76.90
2018-05-02T16:41:10.147Z,77.80
2018-05-02T16:43:37.697Z,77.50
2018-05-02T16:46:05.244Z,77.10
2018-05-02T16:48:32.796Z,78.40
2018-05-02T16:51:00.344Z,77.50
2018-05-02T16:53:27.908Z,77.00
2018-05-02T16:55:55.462Z,77.20
2018-05-02T16:58:23.012Z,77.60
2018-05-02T17:00:50.572Z,79.00
2018-05-02T17:03:18.136Z,77.80
2018-05-02T17:05:45.685Z,77.10
2018-05-02T17:08:13.307Z,76.90
2018-05-02T17:10:40.872Z,76.70
2018-05-02T17:13:09.196Z,75.60
2018-05-02T17:15:36.977Z,75.60
2018-05-02T17:18:04.532Z,76.50
2018-05-02T17:20:32.128Z,76.00
2018-05-02T17:22:59.680Z,75.40
2018-05-02T17:25:27.996Z,75.60
2018-05-02T17:27:55.552Z,75.60
2018-05-02T17:30:23.549Z,75.90
2018-05-02T17:32:51.121Z,76.30
2018-05-02T17:35:18.686Z,76.00
2018-05-02T17:37:47.117Z,76.60
2018-05-02T17:40:14.672Z,76.70
2018-05-02T17:42:42.230Z,77.00
2018-05-02T17:45:09.811Z,76.70
2018-05-02T17:47:37.363Z,76.70
2018-05-02T17:50:04.924Z,76.70
2018-05-02T17:52:32.497Z,77.10
2018-05-02T17:55:00.846Z,77.70
2018-05-02T17:57:28.432Z,77.70
2018-05-02T17:59:55.988Z,77.60
2018-05-02T18:02:23.548Z,77.90
2018-05-02T18:04:51.095Z,77.90
2018-05-02T18:07:18.648Z,77.70
2018-05-02T18:09:46.234Z,78.10
2018-05-02T18:12:13.808Z,78.40
2018-05-02T18:14:41.352Z,80.00
2018-05-02T18:17:08.906Z,80.20
2018-05-02T18:19:36.456Z,80.50
2018-05-02T18:22:04.031Z,81.30
2018-05-02T18:24:31.582Z,80.30
2018-05-02T18:26:59.907Z,80.90
2018-05-02T18:29:28.432Z,80.70
2018-05-02T18:31:55.976Z,80.80
2018-05-02T18:34:23.549Z,80.80
2018-05-02T18:36:51.097Z,81.30
2018-05-02T18:39:18.645Z,81.40
2018-05-02T18:41:46.967Z,82.10
2018-05-02T18:44:14.541Z,82.10
2018-05-02T18:46:42.111Z,82.50
2018-05-02T18:49:09.660Z,82.40
2018-05-02T18:51:37.204Z,82.50
2018-05-02T18:54:04.753Z,82.60
2018-05-02T18:56:33.072Z,82.90
2018-05-02T18:59:00.644Z,82.90
2018-05-02T19:01:28.188Z,83.10
2018-05-02T19:03:55.764Z,83.10
2018-05-02T19:06:23.300Z,83.20
2018-05-02T19:08:50.852Z,83.60
2018-05-02T19:11:18.428Z,83.60
2018-05-02T19:13:51.672Z,83.90
2018-05-02T19:16:19.253Z,84.10
2018-05-02T19:18:52.359Z,84.30
2018-05-02T19:21:20.001Z,84.40
2018-05-02T19:23:47.552Z,85.30
2018-05-02T19:26:20.673Z,85.70
2018-05-02T19:28:48.229Z,86.00
2018-05-02T19:31:21.388Z,86.20
2018-05-02T19:33:52.860Z,86.20
2018-05-02T19:36:20.408Z,87.30
2018-05-02T19:38:49.100Z,86.90
2018-05-02T19:41:22.452Z,87.00
2018-05-02T19:43:55.745Z,88.30
2018-05-02T19:46:23.360Z,88.60
2018-05-02T19:48:50.916Z,88.20
2018-05-02T19:51:24.147Z,88.00
2018-05-02T19:53:51.711Z,88.90
2018-05-02T19:56:20.029Z,88.50
2018-05-02T19:58:47.575Z,89.20
2018-05-02T20:01:20.868Z,89.20
2018-05-02T20:03:48.473Z,90.00
2018-05-02T20:06:16.092Z,89.20
2018-05-02T20:08:50.052Z,89.70
2018-05-02T20:11:23.172Z,89.70
2018-05-02T20:13:57.549Z,90.20
2018-05-02T20:16:25.104Z,90.30
2018-05-02T20:18:52.652Z,90.40
2018-05-02T20:21:20.200Z,90.90
2018-05-02T20:23:49.604Z,90.90
2018-05-02T20:26:17.176Z,90.60
2018-05-02T20:28:44.720Z,90.70
2018-05-02T20:31:12.268Z,90.90
2018-05-02T20:33:39.817Z,90.40
2018-05-02T20:36:07.373Z,90.20
2018-05-02T20:38:34.949Z,91.20
2018-05-02T20:41:02.500Z,91.20
2018-05-02T20:43:30.052Z,91.50
2018-05-02T20:45:57.596Z,91.70
2018-05-02T20:48:25.151Z,92.50
2018-05-02T20:50:52.712Z,92.70
2018-05-02T20:53:20.267Z,92.50
2018-05-02T20:55:47.812Z,91.90
2018-05-02T20:58:15.362Z,92.80
2018-05-02T21:00:42.912Z,92.40
2018-05-02T21:03:10.494Z,92.20
2018-05-02T21:05:38.040Z,92.10
2018-05-02T21:08:05.592Z,93.40
2018-05-02T21:10:33.142Z,93.30
2018-05-02T21:13:01.476Z,92.50
2018-05-02T21:15:29.059Z,92.50
2018-05-02T21:17:57.390Z,94.40
2018-05-02T21:20:24.944Z,94.40
2018-05-02T21:22:52.498Z,94.50
2018-05-02T21:25:20.053Z,93.10
2018-05-02T21:27:47.629Z,92.60
2018-05-02T21:30:15.173Z,93.00
2018-05-02T21:32:42.716Z,93.40
2018-05-02T21:35:10.293Z,92.70
2018-05-02T21:37:37.841Z,93.00
2018-05-02T21:40:05.434Z,93.80
2018-05-02T21:42:32.984Z,93.40
2018-05-02T21:45:00.527Z,93.70
2018-05-02T21:47:28.832Z,92.40
2018-05-02T21:49:56.380Z,92.70
2018-05-02T21:52:23.957Z,92.70
2018-05-02T21:54:52.281Z,93.90
2018-05-02T21:57:19.833Z,93.90
2018-05-02T21:59:47.464Z,94.20
2018-05-02T22:02:14.964Z,94.80
2018-05-02T22:04:42.536Z,95.10
2018-05-02T22:07:10.083Z,94.40
2018-05-02T22:09:37.628Z,94.30
2018-05-02T22:12:05.175Z,95.40
2018-05-02T22:14:32.747Z,95.20
2018-05-02T22:17:00.316Z,94.80
2018-05-02T22:19:27.867Z,95.80
2018-05-02T22:21:55.417Z,95.10
2018-05-02T22:24:22.967Z,94.50
2018-05-02T22:26:50.572Z,93.10
2018-05-02T22:29:18.161Z,92.50
2018-05-02T22:31:45.704Z,92.30
2018-05-02T22:34:13.251Z,92.30
2018-05-02T22:36:40.802Z,92.50
2018-05-02T22:39:08.347Z,91.90
2018-05-02T22:41:35.927Z,92.20
2018-05-02T22:44:03.484Z,93.20
2018-05-02T22:46:31.034Z,93.50
2018-05-02T22:48:58.591Z,93.70
2018-05-02T22:51:26.136Z,94.10
2018-05-02T22:53:53.704Z,94.10
2018-05-02T22:56:21.248Z,94.60
2018-05-02T22:58:48.796Z,94.80
2018-05-02T23:01:16.348Z,95.50
2018-05-02T23:03:43.897Z,93.90
2018-05-02T23:06:11.464Z,93.70
2018-05-02T23:08:39.019Z,92.60
2018-05-02T23:11:06.594Z,92.50
2018-05-02T23:13:34.144Z,92.80
2018-05-02T23:16:01.695Z,93.00
2018-05-02T23:18:29.268Z,92.80
2018-05-02T23:20:56.820Z,92.60
2018-05-02T23:23:24.370Z,92.90
2018-05-02T23:25:51.919Z,92.70
2018-05-02T23:28:19.467Z,93.10
2018-05-02T23:30:47.046Z,93.30
2018-05-02T23:33:14.594Z,93.00
2018-05-02T23:35:42.141Z,94.00
2018-05-02T23:38:09.714Z,93.70
2018-05-02T23:40:37.266Z,93.40
2018-05-02T23:43:04.816Z,93.50
2018-05-02T23:45:32.392Z,93.30
2018-05-02T23:47:59.936Z,94.70
2018-05-02T23:50:27.480Z,95.00
2018-05-02T23:52:55.056Z,94.20
2018-05-02T23:55:22.604Z,93.20
2018-05-02T23:57:50.147Z,92.80
